createdAt,value
2023-01-13T00:01:30.054Z,98883.13
2023-01-13T00:04:01.070Z,98879.72
2023-01-13T00:06:31.094Z,98877.19
2023-01-13T00:08:59.689Z,98878.81
2023-01-13T00:11:28.299Z,98871.16
2023-01-13T00:13:57.283Z,98874.41
2023-01-13T00:16:25.895Z,98880.44
2023-01-13T00:18:54.479Z,98860.00
2023-01-13T00:21:25.288Z,98862.56
2023-01-13T00:23:57.174Z,98862.44
2023-01-13T00:26:30.483Z,98859.09
2023-01-13T00:29:00.728Z,98859.09
2023-01-13T00:31:30.465Z,98853.03
2023-01-13T00:33:59.998Z,98860.69
2023-01-13T00:36:28.954Z,98853.03
2023-01-13T00:38:59.486Z,98858.13
2023-01-13T00:41:49.543Z,98857.22
2023-01-13T00:44:17.263Z,98842.00
2023-01-13T00:46:45.897Z,98832.59
2023-01-13T00:49:14.579Z,98835.13
2023-01-13T00:51:43.163Z,98835.97
2023-01-13T00:54:13.189Z,98838.53
2023-01-13T00:56:41.827Z,98837.56
2023-01-13T00:59:13.734Z,98835.84
2023-01-13T01:01:43.071Z,98825.63
2023-01-13T01:04:12.215Z,98825.63
2023-01-13T01:06:40.828Z,98826.44
2023-01-13T01:09:09.445Z,98825.63
2023-01-13T01:11:39.468Z,98822.16
2023-01-13T01:14:08.950Z,98815.41
2023-01-13T01:16:40.051Z,98809.38
2023-01-13T01:19:08.949Z,98805.19
2023-01-13T01:21:37.619Z,98810.31
2023-01-13T01:24:07.106Z,98813.66
2023-01-13T01:26:35.729Z,98806.00
2023-01-13T01:29:05.776Z,98807.75
2023-01-13T01:31:35.047Z,98812.75
2023-01-13T01:34:03.924Z,98815.28
2023-01-13T01:36:34.886Z,98813.53
2023-01-13T01:39:03.737Z,98814.38
2023-01-13T01:41:35.342Z,98810.19
2023-01-13T01:44:29.031Z,98819.59
2023-01-13T01:46:58.976Z,98809.38
2023-01-13T01:49:32.366Z,98801.72
2023-01-13T01:52:05.671Z,98794.06
2023-01-13T01:54:41.118Z,98798.22
2023-01-13T01:57:13.968Z,98800.88
2023-01-13T01:59:44.635Z,98800.88
2023-01-13T02:02:13.928Z,98806.81
2023-01-13T02:05:01.341Z,98798.22
2023-01-13T02:07:33.504Z,98796.59
2023-01-13T02:10:06.847Z,98799.97
2023-01-13T02:12:36.443Z,98791.50
2023-01-13T02:15:09.984Z,98779.41
2023-01-13T02:18:19.307Z,98793.09
2023-01-13T02:20:59.126Z,98780.44
2023-01-13T02:24:38.472Z,98772.91
2023-01-13T02:27:53.342Z,98769.66
2023-01-13T02:30:57.355Z,98771.25
2023-01-13T02:33:41.333Z,98783.22
2023-01-13T02:36:21.456Z,98771.25
2023-01-13T02:38:53.879Z,98771.25
2023-01-13T02:41:47.675Z,98770.34
2023-01-13T02:44:22.946Z,98769.53
2023-01-13T02:46:58.303Z,98756.75
2023-01-13T02:49:35.503Z,98764.44
2023-01-13T02:52:11.669Z,98760.25
2023-01-13T02:54:44.482Z,98758.50
2023-01-13T02:57:15.367Z,98756.75
2023-01-13T02:59:45.243Z,98750.03
2023-01-13T03:02:23.024Z,98746.53
2023-01-13T03:04:55.807Z,98750.81
2023-01-13T03:07:59.399Z,98752.56
2023-01-13T03:10:53.086Z,98744.91
2023-01-13T03:13:45.061Z,98740.72
2023-01-13T03:16:30.099Z,98732.25
2023-01-13T03:19:15.285Z,98732.25
2023-01-13T03:21:53.750Z,98733.88
2023-01-13T03:24:29.765Z,98728.78
2023-01-13T03:27:05.119Z,98722.84
2023-01-13T03:29:38.050Z,98717.72
2023-01-13T03:32:13.209Z,98717.72
2023-01-13T03:34:47.998Z,98732.94
2023-01-13T03:37:21.369Z,98720.16
2023-01-13T03:39:55.929Z,98712.50
2023-01-13T03:42:27.669Z,98718.44
2023-01-13T03:45:01.084Z,98715.88
2023-01-13T03:47:36.843Z,98709.13
2023-01-13T03:50:11.585Z,98704.81
2023-01-13T03:52:45.888Z,98701.34
2023-01-13T03:55:19.249Z,98697.16
2023-01-13T03:57:55.017Z,98693.69
2023-01-13T04:00:28.162Z,98690.34
2023-01-13T04:03:02.582Z,98698.78
2023-01-13T04:05:35.116Z,98702.97
2023-01-13T04:08:13.807Z,98693.69
2023-01-13T04:10:50.677Z,98690.34
2023-01-13T04:13:23.897Z,98692.88
2023-01-13T04:15:52.877Z,98684.28
2023-01-13T04:18:26.212Z,98684.28
2023-01-13T04:20:58.808Z,98682.53
2023-01-13T04:23:29.044Z,98682.53
2023-01-13T04:25:58.345Z,98686.03
2023-01-13T04:28:28.043Z,98677.44
2023-01-13T04:30:56.836Z,98682.53
2023-01-13T04:33:25.554Z,98683.34
2023-01-13T04:35:55.560Z,98690.09
2023-01-13T04:38:24.250Z,98689.28
2023-01-13T04:40:52.882Z,98688.47
2023-01-13T04:43:21.510Z,98684.19
2023-01-13T04:45:50.096Z,98681.63
2023-01-13T04:48:18.681Z,98674.75
2023-01-13T04:50:47.367Z,98684.97
2023-01-13T04:53:17.434Z,98675.56
2023-01-13T04:55:47.897Z,98682.31
2023-01-13T04:58:16.788Z,98680.53
2023-01-13T05:00:45.596Z,98672.09
2023-01-13T05:03:14.296Z,98669.53
2023-01-13T05:05:43.269Z,98670.31
2023-01-13T05:08:11.865Z,98668.59
2023-01-13T05:10:41.908Z,98664.41
2023-01-13T05:13:24.727Z,98657.56
2023-01-13T05:16:19.318Z,98659.31
2023-01-13T05:18:48.112Z,98645.72
2023-01-13T05:21:30.613Z,98649.88
2023-01-13T05:24:16.690Z,98656.75
2023-01-13T05:26:46.875Z,98650.00
2023-01-13T05:29:15.473Z,98644.91
2023-01-13T05:31:44.104Z,98655.94
2023-01-13T05:34:12.774Z,98656.75
2023-01-13T05:36:41.450Z,98646.53
2023-01-13T05:39:10.455Z,98651.63
2023-01-13T05:41:56.403Z,98647.31
2023-01-13T05:44:26.525Z,98650.84
2023-01-13T05:46:55.204Z,98648.16
2023-01-13T05:49:23.839Z,98643.97
2023-01-13T05:51:52.408Z,98649.78
2023-01-13T05:54:21.098Z,98652.34
2023-01-13T05:56:49.667Z,98650.59
2023-01-13T05:59:18.284Z,98661.63
2023-01-13T06:01:48.285Z,98659.91
2023-01-13T06:04:16.951Z,98658.13
2023-01-13T06:06:45.588Z,98663.25
2023-01-13T06:09:14.544Z,98653.81
2023-01-13T06:11:43.178Z,98659.78
2023-01-13T06:14:11.901Z,98667.44
2023-01-13T06:16:40.591Z,98664.88
2023-01-13T06:19:13.064Z,98675.91
2023-01-13T06:21:41.903Z,98679.38
2023-01-13T06:24:10.741Z,98682.78
2023-01-13T06:26:41.815Z,98683.56
2023-01-13T06:29:14.061Z,98677.66
2023-01-13T06:31:42.724Z,98688.81
2023-01-13T06:34:15.216Z,98690.44
2023-01-13T06:36:47.742Z,98695.53
2023-01-13T06:39:21.962Z,98691.34
2023-01-13T06:42:10.922Z,98685.44
2023-01-13T06:44:39.679Z,98694.03
2023-01-13T06:47:08.837Z,98697.38
2023-01-13T06:49:38.955Z,98691.59
2023-01-13T06:52:07.595Z,98711.13
2023-01-13T06:54:36.234Z,98702.75
2023-01-13T06:57:05.681Z,98736.88
2023-01-13T06:59:35.340Z,98765.81
2023-01-13T07:02:04.502Z,98780.44
2023-01-13T07:04:33.296Z,98773.69
2023-01-13T07:07:03.315Z,98784.88
2023-01-13T07:09:31.958Z,98776.38
2023-01-13T07:12:00.802Z,98769.53
2023-01-13T07:14:46.868Z,98775.56
2023-01-13T07:17:15.474Z,98777.31
2023-01-13T07:19:44.074Z,98765.34
2023-01-13T07:22:15.947Z,98762.00
2023-01-13T07:24:44.572Z,98768.03
2023-01-13T07:27:13.197Z,98765.47
2023-01-13T07:29:41.856Z,98777.41
2023-01-13T07:32:10.660Z,98778.25
2023-01-13T07:34:39.311Z,98777.41
2023-01-13T07:37:07.949Z,98788.47
2023-01-13T07:39:38.244Z,98799.59
2023-01-13T07:42:23.703Z,98792.75
2023-01-13T07:44:52.379Z,98803.91
2023-01-13T07:47:23.306Z,98802.16
2023-01-13T07:49:51.938Z,98804.72
2023-01-13T07:52:20.558Z,98802.16
2023-01-13T07:54:50.895Z,98814.94
2023-01-13T07:57:19.667Z,98806.34
2023-01-13T07:59:48.356Z,98791.94
2023-01-13T08:02:17.224Z,98804.72
2023-01-13T08:04:45.948Z,98805.63
2023-01-13T08:07:14.560Z,98804.03
2023-01-13T08:09:43.233Z,98795.41
2023-01-13T08:12:30.571Z,98792.97
2023-01-13T08:14:59.197Z,98814.34
2023-01-13T08:17:28.840Z,98837.31
2023-01-13T08:19:57.390Z,98851.84
2023-01-13T08:22:26.050Z,98864.75
2023-01-13T08:24:54.665Z,98867.41
2023-01-13T08:27:24.663Z,98864.75
2023-01-13T08:29:53.311Z,98869.97
2023-01-13T08:32:21.911Z,98879.34
2023-01-13T08:34:50.545Z,98881.91
2023-01-13T08:37:19.360Z,98881.13
2023-01-13T08:39:48.031Z,98876.00
2023-01-13T08:42:16.697Z,98881.13
2023-01-13T08:44:46.711Z,98879.47
2023-01-13T08:47:15.337Z,98888.91
2023-01-13T08:49:43.963Z,98902.47
2023-01-13T08:52:12.849Z,98893.16
2023-01-13T08:54:41.847Z,98893.16
2023-01-13T08:57:10.778Z,98892.38
2023-01-13T08:59:39.552Z,98900.84
2023-01-13T09:02:15.571Z,98907.69
2023-01-13T09:04:45.127Z,98910.25
2023-01-13T09:07:14.479Z,98905.13
2023-01-13T09:09:43.495Z,98908.63
2023-01-13T09:12:31.555Z,98908.63
2023-01-13T09:15:00.410Z,98904.44
2023-01-13T09:17:30.440Z,98910.34
2023-01-13T09:19:59.079Z,98907.81
2023-01-13T09:22:28.992Z,98912.91
2023-01-13T09:24:58.108Z,98918.03
2023-01-13T09:27:26.728Z,98930.81
2023-01-13T09:29:55.311Z,98930.81
2023-01-13T09:32:23.978Z,98928.13
2023-01-13T09:35:02.043Z,98924.78
2023-01-13T09:37:32.538Z,98921.38
2023-01-13T09:40:01.256Z,98917.09
2023-01-13T09:43:05.181Z,98922.22
2023-01-13T09:45:40.300Z,98925.69
2023-01-13T09:48:15.110Z,98914.66
2023-01-13T09:51:00.965Z,98918.94
2023-01-13T09:53:34.266Z,98918.13
2023-01-13T09:56:03.158Z,98924.88
2023-01-13T09:58:31.884Z,98918.81
2023-01-13T10:01:12.527Z,98935.00
2023-01-13T10:03:41.921Z,98934.03
2023-01-13T10:06:18.244Z,98925.47
2023-01-13T10:08:48.791Z,98935.69
2023-01-13T10:11:38.136Z,98938.97
2023-01-13T10:14:24.708Z,98942.44
2023-01-13T10:17:04.921Z,98942.44
2023-01-13T10:19:40.232Z,98933.84
2023-01-13T10:22:35.531Z,98930.44
2023-01-13T10:25:23.620Z,98927.91
2023-01-13T10:27:55.484Z,98933.00
2023-01-13T10:30:31.610Z,98913.41
2023-01-13T10:33:02.841Z,98909.91
2023-01-13T10:36:00.329Z,98909.91
2023-01-13T10:38:39.351Z,98920.13
2023-01-13T10:41:20.882Z,98914.09
2023-01-13T10:44:03.560Z,98919.19
2023-01-13T10:46:34.573Z,98918.28
2023-01-13T10:49:05.508Z,98915.72
2023-01-13T10:51:45.504Z,98915.72
2023-01-13T10:54:23.383Z,98914.81
2023-01-13T10:57:19.236Z,98919.09
2023-01-13T10:59:48.482Z,98910.72
2023-01-13T11:02:27.858Z,98910.63
2023-01-13T11:05:20.142Z,98918.41
2023-01-13T11:07:52.579Z,98930.34
2023-01-13T11:10:27.304Z,98928.63
2023-01-13T11:13:05.416Z,98933.72
2023-01-13T11:15:42.317Z,98920.13
2023-01-13T11:18:20.856Z,98934.53
2023-01-13T11:20:52.799Z,98934.53
2023-01-13T11:23:27.680Z,98942.19
2023-01-13T11:26:12.681Z,98948.03
2023-01-13T11:28:50.111Z,98943.84
2023-01-13T11:31:25.629Z,98953.13
2023-01-13T11:34:01.025Z,98942.00
2023-01-13T11:36:36.063Z,98942.81
2023-01-13T11:39:18.666Z,98948.81
2023-01-13T11:42:14.148Z,98953.81
2023-01-13T11:44:47.806Z,98952.22
2023-01-13T11:47:26.544Z,98958.94
2023-01-13T11:49:55.736Z,98960.56
2023-01-13T11:52:35.426Z,98962.22
2023-01-13T11:55:22.756Z,98965.69
2023-01-13T11:58:15.533Z,98965.69
2023-01-13T12:01:22.925Z,98965.69
2023-01-13T12:04:05.656Z,98970.78
2023-01-13T12:06:37.504Z,98976.72
2023-01-13T12:09:31.812Z,98973.34
2023-01-13T12:12:22.872Z,98992.16
2023-01-13T12:15:35.931Z,98981.94
2023-01-13T12:18:22.463Z,98977.84
2023-01-13T12:21:08.430Z,98988.91
2023-01-13T12:23:44.806Z,98988.91
2023-01-13T12:26:17.104Z,98982.88
2023-01-13T12:28:51.353Z,98978.56
2023-01-13T12:31:23.294Z,98977.66
2023-01-13T12:34:11.462Z,98986.94
2023-01-13T12:36:55.712Z,98973.34
2023-01-13T12:39:34.736Z,98978.47
2023-01-13T12:42:43.567Z,98974.97
2023-01-13T12:45:30.607Z,98974.25
2023-01-13T12:48:01.613Z,98973.34
2023-01-13T12:50:44.359Z,98965.69
2023-01-13T12:53:38.589Z,98966.59
2023-01-13T12:56:40.397Z,98960.69
2023-01-13T12:59:51.530Z,98957.34
2023-01-13T13:02:36.201Z,98958.94
2023-01-13T13:05:40.917Z,98951.28
2023-01-13T13:08:19.531Z,98941.78
2023-01-13T13:11:03.336Z,98941.78
2023-01-13T13:13:46.856Z,98948.53
2023-01-13T13:16:55.938Z,98956.19
2023-01-13T13:19:58.904Z,98963.84
2023-01-13T13:22:51.791Z,98963.84
2023-01-13T13:25:27.893Z,98967.09
2023-01-13T13:28:10.244Z,98977.19
2023-01-13T13:30:45.861Z,98984.06
2023-01-13T13:33:39.070Z,98982.31
2023-01-13T13:36:28.065Z,98991.63
2023-01-13T13:39:36.115Z,98989.06
2023-01-13T13:42:32.283Z,98994.16
2023-01-13T13:45:21.264Z,98998.38
2023-01-13T13:47:49.929Z,98985.69
2023-01-13T13:50:22.115Z,98991.63
2023-01-13T13:52:56.585Z,98991.63
2023-01-13T13:55:29.993Z,99002.63
2023-01-13T13:58:01.686Z,98998.47
2023-01-13T14:00:34.630Z,99006.16
2023-01-13T14:03:06.998Z,99006.22
2023-01-13T14:05:37.990Z,99021.47
2023-01-13T14:08:16.610Z,99027.50
2023-01-13T14:10:47.899Z,99035.97
2023-01-13T14:13:21.329Z,99055.63
2023-01-13T14:15:57.394Z,99055.63
2023-01-13T14:18:27.180Z,99062.44
2023-01-13T14:20:59.828Z,99083.84
2023-01-13T14:23:30.691Z,99092.41
2023-01-13T14:26:10.050Z,99094.97
2023-01-13T14:28:40.304Z,99116.31
2023-01-13T14:31:10.581Z,99113.88
2023-01-13T14:33:43.264Z,99107.13
2023-01-13T14:36:20.127Z,99114.91
2023-01-13T14:38:51.468Z,99126.88
2023-01-13T14:41:25.745Z,99115.94
2023-01-13T14:43:59.265Z,99119.22
2023-01-13T14:46:38.908Z,99118.50
2023-01-13T14:49:24.986Z,99120.94
2023-01-13T14:51:54.463Z,99113.28
2023-01-13T14:54:51.409Z,99125.25
2023-01-13T14:57:29.719Z,99120.25
2023-01-13T15:00:08.141Z,99120.25
2023-01-13T15:02:46.492Z,99124.50
2023-01-13T15:05:42.657Z,99114.28
2023-01-13T15:08:44.593Z,99128.81
2023-01-13T15:11:25.754Z,99138.22
2023-01-13T15:14:02.858Z,99135.69
2023-01-13T15:16:33.904Z,99146.69
2023-01-13T15:19:03.682Z,99147.50
2023-01-13T15:21:32.363Z,99146.59
2023-01-13T15:24:01.212Z,99148.44
2023-01-13T15:26:31.681Z,99153.56
2023-01-13T15:29:01.798Z,99145.91
2023-01-13T15:31:30.715Z,99151.13
2023-01-13T15:34:00.796Z,99168.16
2023-01-13T15:36:31.964Z,99183.50
2023-01-13T15:39:02.271Z,99190.34
2023-01-13T15:41:48.873Z,99191.16
2023-01-13T15:44:36.684Z,99193.03
2023-01-13T15:47:09.110Z,99198.13
2023-01-13T15:49:41.312Z,99198.13
2023-01-13T15:52:21.396Z,99199.84
2023-01-13T15:54:50.385Z,99200.69
2023-01-13T15:57:24.714Z,99196.50
2023-01-13T15:59:58.491Z,99193.13
2023-01-13T16:02:27.609Z,99194.84
2023-01-13T16:04:56.313Z,99198.25
2023-01-13T16:07:26.632Z,99196.50
2023-01-13T16:09:55.419Z,99204.16
2023-01-13T16:12:24.364Z,99215.28
2023-01-13T16:14:54.471Z,99209.25
2023-01-13T16:17:24.949Z,99216.94
2023-01-13T16:19:53.852Z,99211.81
2023-01-13T16:22:22.715Z,99227.16
2023-01-13T16:24:51.378Z,99225.50
2023-01-13T16:27:22.208Z,99222.03
2023-01-13T16:29:51.822Z,99227.16
2023-01-13T16:32:21.920Z,99235.72
2023-01-13T16:34:50.756Z,99238.28
2023-01-13T16:37:25.392Z,99236.56
2023-01-13T16:39:55.631Z,99245.94
2023-01-13T16:42:24.322Z,99248.50
2023-01-13T16:44:52.965Z,99245.94
2023-01-13T16:47:24.309Z,99256.16
2023-01-13T16:49:52.885Z,99265.56
2023-01-13T16:52:21.454Z,99272.41
2023-01-13T16:54:50.104Z,99279.16
2023-01-13T16:57:18.724Z,99283.34
2023-01-13T16:59:47.321Z,99286.81
2023-01-13T17:02:20.248Z,99297.94
2023-01-13T17:04:50.923Z,99297.94
2023-01-13T17:07:19.980Z,99308.16
2023-01-13T17:09:48.577Z,99314.22
2023-01-13T17:12:17.233Z,99319.34
2023-01-13T17:14:45.774Z,99322.69
2023-01-13T17:17:23.594Z,99328.72
2023-01-13T17:19:54.633Z,99322.81
2023-01-13T17:22:24.122Z,99327.91
2023-01-13T17:24:52.777Z,99327.91
2023-01-13T17:27:21.587Z,99330.47
2023-01-13T17:29:50.399Z,99333.03
2023-01-13T17:32:23.022Z,99336.47
2023-01-13T17:34:53.976Z,99340.78
2023-01-13T17:37:22.779Z,99346.72
2023-01-13T17:39:53.625Z,99341.59
2023-01-13T17:42:24.127Z,99349.25
2023-01-13T17:44:53.458Z,99357.75
2023-01-13T17:47:22.255Z,99354.38
2023-01-13T17:49:50.902Z,99362.03
2023-01-13T17:52:21.344Z,99362.88
2023-01-13T17:54:49.960Z,99363.69
2023-01-13T17:57:18.653Z,99383.31
2023-01-13T17:59:48.003Z,99362.03
2023-01-13T18:02:16.808Z,99381.66
2023-01-13T18:04:45.654Z,99385.03
2023-01-13T18:07:14.249Z,99387.59
2023-01-13T18:09:44.257Z,99385.03
2023-01-13T18:12:12.943Z,99385.88
2023-01-13T18:14:41.758Z,99392.69
2023-01-13T18:17:10.742Z,99399.53
2023-01-13T18:19:56.707Z,99401.19
2023-01-13T18:22:42.796Z,99400.47
2023-01-13T18:25:32.204Z,99413.22
2023-01-13T18:28:01.497Z,99421.81
2023-01-13T18:30:30.239Z,99418.44
2023-01-13T18:32:58.903Z,99425.19
2023-01-13T18:35:27.550Z,99433.78
2023-01-13T18:37:56.232Z,99439.69
2023-01-13T18:40:26.260Z,99431.22
2023-01-13T18:42:54.912Z,99440.53
2023-01-13T18:45:26.287Z,99444.81
2023-01-13T18:47:58.149Z,99442.25
2023-01-13T18:50:28.173Z,99455.00
2023-01-13T18:52:57.157Z,99449.00
2023-01-13T18:55:28.622Z,99448.19
2023-01-13T18:57:57.939Z,99447.34
2023-01-13T19:00:27.424Z,99449.09
2023-01-13T19:05:36.267Z,99459.31
2023-01-13T19:08:05.409Z,99449.09
2023-01-13T19:10:36.472Z,99458.47
2023-01-13T19:13:05.220Z,99453.38
2023-01-13T19:15:33.914Z,99457.66
2023-01-13T19:18:02.600Z,99468.69
2023-01-13T19:20:31.197Z,99477.31
2023-01-13T19:22:59.819Z,99472.19
2023-01-13T19:25:28.466Z,99487.53
2023-01-13T19:27:58.474Z,99486.69
2023-01-13T19:30:27.126Z,99494.25
2023-01-13T19:32:55.735Z,99492.72
2023-01-13T19:35:24.359Z,99494.34
2023-01-13T19:37:53.999Z,99502.94
2023-01-13T19:40:22.713Z,99496.91
2023-01-13T19:43:08.907Z,99503.66
2023-01-13T19:45:38.958Z,99515.72
2023-01-13T19:48:08.607Z,99513.19
2023-01-13T19:50:39.682Z,99520.88
2023-01-13T19:53:09.063Z,99523.38
2023-01-13T19:55:37.675Z,99528.50
2023-01-13T19:58:08.147Z,99533.59
2023-01-13T20:00:46.720Z,99534.47
2023-01-13T20:03:15.496Z,99530.22
2023-01-13T20:05:44.210Z,99529.38
2023-01-13T20:08:13.027Z,99524.25
2023-01-13T20:10:42.880Z,99539.59
2023-01-13T20:13:11.481Z,99538.75
2023-01-13T20:15:42.413Z,99534.47
2023-01-13T20:18:11.478Z,99539.59
2023-01-13T20:20:40.101Z,99528.53
2023-01-13T20:23:08.754Z,99535.38
2023-01-13T20:25:37.424Z,99539.69
2023-01-13T20:28:07.207Z,99538.84
2023-01-13T20:30:35.817Z,99533.75
2023-01-13T20:33:05.785Z,99549.06
2023-01-13T20:35:34.421Z,99544.91
2023-01-13T20:38:03.127Z,99549.16
2023-01-13T20:40:31.769Z,99538.16
2023-01-13T20:42:59.416Z,99543.25
2023-01-13T20:45:28.017Z,99549.28
2023-01-13T20:47:56.617Z,99549.28
2023-01-13T20:50:26.614Z,99544.16
2023-01-13T20:52:55.212Z,99534.03
2023-01-13T20:55:23.919Z,99530.69
2023-01-13T20:57:52.596Z,99532.41
2023-01-13T21:00:22.435Z,99540.91
2023-01-13T21:02:51.051Z,99541.81
2023-01-13T21:05:19.776Z,99552.03
2023-01-13T21:07:49.726Z,99557.22
2023-01-13T21:10:18.513Z,99559.78
2023-01-13T21:13:04.875Z,99553.84
2023-01-13T21:15:33.559Z,99550.56
2023-01-13T21:18:19.553Z,99555.69
2023-01-13T21:20:48.158Z,99569.34
2023-01-13T21:23:18.342Z,99571.91
2023-01-13T21:25:46.977Z,99565.06
2023-01-13T21:28:16.675Z,99564.25
2023-01-13T21:30:46.775Z,99563.50
2023-01-13T21:33:15.715Z,99573.66
2023-01-13T21:35:44.473Z,99565.16
2023-01-13T21:38:13.737Z,99567.72
2023-01-13T21:40:43.790Z,99578.75
2023-01-13T21:43:31.127Z,99583.03
2023-01-13T21:46:31.690Z,99575.47
2023-01-13T21:49:00.429Z,99589.97
2023-01-13T21:51:29.474Z,99594.25
2023-01-13T21:53:58.443Z,99598.44
2023-01-13T21:56:28.751Z,99600.19
2023-01-13T21:58:57.412Z,99603.56
2023-01-13T22:01:26.121Z,99602.75
2023-01-13T22:04:12.385Z,99606.13
2023-01-13T22:06:41.454Z,99604.47
2023-01-13T22:09:10.170Z,99602.84
2023-01-13T22:11:40.133Z,99604.47
2023-01-13T22:14:09.460Z,99608.78
2023-01-13T22:16:41.876Z,99613.88
2023-01-13T22:19:11.876Z,99607.97
2023-01-13T22:21:40.915Z,99615.63
2023-01-13T22:24:09.990Z,99611.41
2023-01-13T22:26:39.995Z,99616.53
2023-01-13T22:29:08.660Z,99606.31
2023-01-13T22:31:37.403Z,99602.00
2023-01-13T22:34:06.079Z,99607.13
2023-01-13T22:36:34.801Z,99600.38
2023-01-13T22:39:04.684Z,99602.91
2023-01-13T22:41:33.329Z,99608.03
2023-01-13T22:44:03.356Z,99613.22
2023-01-13T22:46:31.993Z,99619.19
2023-01-13T22:49:00.598Z,99625.09
2023-01-13T22:51:30.644Z,99617.44
2023-01-13T22:53:59.308Z,99627.75
2023-01-13T22:56:28.621Z,99637.16
2023-01-13T22:58:58.410Z,99649.81
2023-01-13T23:01:31.961Z,99643.06
2023-01-13T23:04:01.165Z,99639.69
2023-01-13T23:06:33.521Z,99643.06
2023-01-13T23:09:02.350Z,99645.63
2023-01-13T23:11:31.301Z,99646.53
2023-01-13T23:14:02.120Z,99657.56
2023-01-13T23:16:35.023Z,99646.53
2023-01-13T23:19:04.508Z,99643.97
2023-01-13T23:21:37.219Z,99656.75
2023-01-13T23:24:07.139Z,99653.38
2023-01-13T23:26:37.205Z,99649.06
2023-01-13T23:29:08.803Z,99658.47
2023-01-13T23:31:40.053Z,99655.94
2023-01-13T23:34:08.720Z,99656.75
2023-01-13T23:36:41.109Z,99654.19
2023-01-13T23:39:09.777Z,99644.88
2023-01-13T23:41:38.401Z,99644.88
2023-01-13T23:44:07.994Z,99646.63
2023-01-13T23:46:38.107Z,99656.03
2023-01-13T23:49:06.839Z,99658.56
2023-01-13T23:51:35.494Z,99646.63
2023-01-13T23:54:04.154Z,99652.63
2023-01-13T23:56:34.059Z,99662.03
2023-01-13T23:59:02.719Z,99644.97
